sensor_id;sensor_type;location;lat;lon;timestamp;P1;durP1;ratioP1;P2;durP2;ratioP2
73283;SDS011;61519;60.050;18.582;2023-02-08T00:00:32;15.00;;;3.33;;
73283;SDS011;61519;60.050;18.582;2023-02-08T00:02:57;9.43;;;2.73;;
73283;SDS011;61519;60.050;18.582;2023-02-08T00:05:22;11.93;;;2.93;;
73283;SDS011;61519;60.050;18.582;2023-02-08T00:07:48;13.07;;;2.80;;
73283;SDS011;61519;60.050;18.582;2023-02-08T00:10:13;17.57;;;3.03;;
73283;SDS011;61519;60.050;18.582;2023-02-08T00:12:38;9.07;;;2.75;;
73283;SDS011;61519;60.050;18.582;2023-02-08T00:15:04;12.40;;;2.87;;
73283;SDS011;61519;60.050;18.582;2023-02-08T00:17:30;13.97;;;2.47;;
73283;SDS011;61519;60.050;18.582;2023-02-08T00:19:55;16.48;;;3.25;;
73283;SDS011;61519;60.050;18.582;2023-02-08T00:22:20;15.17;;;3.00;;
73283;SDS011;61519;60.050;18.582;2023-02-08T00:24:46;17.17;;;2.97;;
73283;SDS011;61519;60.050;18.582;2023-02-08T00:27:11;15.27;;;3.07;;
73283;SDS011;61519;60.050;18.582;2023-02-08T00:29:37;25.50;;;3.10;;
73283;SDS011;61519;60.050;18.582;2023-02-08T00:32:02;17.43;;;3.50;;
73283;SDS011;61519;60.050;18.582;2023-02-08T00:34:28;13.98;;;2.63;;
73283;SDS011;61519;60.050;18.582;2023-02-08T00:36:53;19.53;;;2.80;;
73283;SDS011;61519;60.050;18.582;2023-02-08T00:39:19;15.03;;;2.20;;
73283;SDS011;61519;60.050;18.582;2023-02-08T00:41:45;11.35;;;3.33;;
73283;SDS011;61519;60.050;18.582;2023-02-08T00:44:11;11.90;;;2.70;;
73283;SDS011;61519;60.050;18.582;2023-02-08T00:46:36;11.07;;;2.83;;
73283;SDS011;61519;60.050;18.582;2023-02-08T00:49:01;15.03;;;2.67;;
73283;SDS011;61519;60.050;18.582;2023-02-08T00:51:27;11.40;;;2.35;;
73283;SDS011;61519;60.050;18.582;2023-02-08T00:53:53;14.77;;;2.47;;
73283;SDS011;61519;60.050;18.582;2023-02-08T00:56:18;16.53;;;3.20;;
73283;SDS011;61519;60.050;18.582;2023-02-08T00:58:44;15.70;;;2.60;;
73283;SDS011;61519;60.050;18.582;2023-02-08T01:01:09;13.27;;;2.77;;
73283;SDS011;61519;60.050;18.582;2023-02-08T01:03:35;12.40;;;2.87;;
73283;SDS011;61519;60.050;18.582;2023-02-08T01:06:02;14.70;;;2.67;;
73283;SDS011;61519;60.050;18.582;2023-02-08T01:08:29;12.35;;;2.50;;
73283;SDS011;61519;60.050;18.582;2023-02-08T01:11:08;23.40;;;3.30;;
73283;SDS011;61519;60.050;18.582;2023-02-08T01:13:38;15.90;;;2.65;;
73283;SDS011;61519;60.050;18.582;2023-02-08T01:16:05;13.27;;;2.92;;
73283;SDS011;61519;60.050;18.582;2023-02-08T01:18:41;15.40;;;2.70;;
73283;SDS011;61519;60.050;18.582;2023-02-08T01:21:09;13.20;;;2.70;;
73283;SDS011;61519;60.050;18.582;2023-02-08T01:23:36;18.20;;;3.63;;
73283;SDS011;61519;60.050;18.582;2023-02-08T01:26:02;11.97;;;3.00;;
73283;SDS011;61519;60.050;18.582;2023-02-08T01:28:28;11.50;;;2.58;;
73283;SDS011;61519;60.050;18.582;2023-02-08T01:30:53;11.13;;;2.90;;
73283;SDS011;61519;60.050;18.582;2023-02-08T01:33:19;15.73;;;3.17;;
73283;SDS011;61519;60.050;18.582;2023-02-08T01:35:44;14.67;;;2.73;;
73283;SDS011;61519;60.050;18.582;2023-02-08T01:38:09;15.27;;;2.17;;
73283;SDS011;61519;60.050;18.582;2023-02-08T01:40:35;15.77;;;2.63;;
73283;SDS011;61519;60.050;18.582;2023-02-08T01:43:00;13.37;;;2.53;;
73283;SDS011;61519;60.050;18.582;2023-02-08T01:45:27;11.53;;;3.13;;
73283;SDS011;61519;60.050;18.582;2023-02-08T01:48:00;19.63;;;2.92;;
73283;SDS011;61519;60.050;18.582;2023-02-08T01:51:11;14.63;;;2.60;;
73283;SDS011;61519;60.050;18.582;2023-02-08T01:53:38;14.00;;;3.13;;
73283;SDS011;61519;60.050;18.582;2023-02-08T01:56:07;12.43;;;2.30;;
73283;SDS011;61519;60.050;18.582;2023-02-08T01:58:37;13.57;;;2.10;;
73283;SDS011;61519;60.050;18.582;2023-02-08T02:01:04;10.55;;;2.20;;
73283;SDS011;61519;60.050;18.582;2023-02-08T02:03:30;12.20;;;1.97;;
73283;SDS011;61519;60.050;18.582;2023-02-08T02:06:03;12.60;;;2.77;;
73283;SDS011;61519;60.050;18.582;2023-02-08T02:08:32;11.55;;;2.30;;
73283;SDS011;61519;60.050;18.582;2023-02-08T02:10:57;16.77;;;2.80;;
73283;SDS011;61519;60.050;18.582;2023-02-08T02:13:24;10.45;;;2.47;;
73283;SDS011;61519;60.050;18.582;2023-02-08T02:15:51;12.40;;;3.13;;
73283;SDS011;61519;60.050;18.582;2023-02-08T02:18:19;13.73;;;2.60;;
73283;SDS011;61519;60.050;18.582;2023-02-08T02:23:47;15.23;;;2.40;;
73283;SDS011;61519;60.050;18.582;2023-02-08T02:26:29;14.17;;;2.70;;
73283;SDS011;61519;60.050;18.582;2023-02-08T02:31:56;12.48;;;3.13;;
73283;SDS011;61519;60.050;18.582;2023-02-08T02:34:46;10.30;;;2.42;;
73283;SDS011;61519;60.050;18.582;2023-02-08T02:40:09;11.65;;;2.22;;
73283;SDS011;61519;60.050;18.582;2023-02-08T02:45:49;11.57;;;2.08;;
73283;SDS011;61519;60.050;18.582;2023-02-08T02:50:56;16.20;;;2.35;;
73283;SDS011;61519;60.050;18.582;2023-02-08T02:53:30;12.88;;;2.20;;
73283;SDS011;61519;60.050;18.582;2023-02-08T02:55:59;11.35;;;3.00;;
73283;SDS011;61519;60.050;18.582;2023-02-08T02:58:28;11.82;;;2.33;;
73283;SDS011;61519;60.050;18.582;2023-02-08T03:00:56;8.25;;;2.55;;
73283;SDS011;61519;60.050;18.582;2023-02-08T03:03:23;9.80;;;2.10;;
73283;SDS011;61519;60.050;18.582;2023-02-08T03:05:55;12.63;;;2.30;;
73283;SDS011;61519;60.050;18.582;2023-02-08T03:11:08;10.23;;;2.00;;
73283;SDS011;61519;60.050;18.582;2023-02-08T03:19:35;16.73;;;2.58;;
73283;SDS011;61519;60.050;18.582;2023-02-08T03:22:16;15.75;;;2.45;;
73283;SDS011;61519;60.050;18.582;2023-02-08T03:24:48;14.40;;;2.42;;
73283;SDS011;61519;60.050;18.582;2023-02-08T03:27:26;16.93;;;2.60;;
73283;SDS011;61519;60.050;18.582;2023-02-08T03:30:02;13.38;;;2.65;;
73283;SDS011;61519;60.050;18.582;2023-02-08T03:32:42;12.70;;;2.67;;
73283;SDS011;61519;60.050;18.582;2023-02-08T03:37:42;16.87;;;2.87;;
73283;SDS011;61519;60.050;18.582;2023-02-08T03:40:11;9.38;;;2.28;;
73283;SDS011;61519;60.050;18.582;2023-02-08T03:42:40;17.05;;;2.60;;
73283;SDS011;61519;60.050;18.582;2023-02-08T03:45:15;12.98;;;2.70;;
73283;SDS011;61519;60.050;18.582;2023-02-08T03:47:43;12.77;;;2.42;;
73283;SDS011;61519;60.050;18.582;2023-02-08T03:50:11;10.85;;;2.40;;
73283;SDS011;61519;60.050;18.582;2023-02-08T03:52:37;13.52;;;2.38;;
73283;SDS011;61519;60.050;18.582;2023-02-08T03:55:11;15.80;;;2.78;;
73283;SDS011;61519;60.050;18.582;2023-02-08T03:57:49;16.33;;;2.55;;
73283;SDS011;61519;60.050;18.582;2023-02-08T04:00:17;9.60;;;2.55;;
73283;SDS011;61519;60.050;18.582;2023-02-08T04:02:48;12.65;;;3.15;;
73283;SDS011;61519;60.050;18.582;2023-02-08T04:05:36;12.93;;;2.87;;
73283;SDS011;61519;60.050;18.582;2023-02-08T04:08:01;19.80;;;3.15;;
73283;SDS011;61519;60.050;18.582;2023-02-08T04:10:26;13.57;;;2.70;;
73283;SDS011;61519;60.050;18.582;2023-02-08T04:12:52;10.27;;;2.60;;
73283;SDS011;61519;60.050;18.582;2023-02-08T04:15:17;13.37;;;2.30;;
73283;SDS011;61519;60.050;18.582;2023-02-08T04:17:43;13.93;;;2.63;;
73283;SDS011;61519;60.050;18.582;2023-02-08T04:20:08;16.77;;;2.50;;
73283;SDS011;61519;60.050;18.582;2023-02-08T04:22:33;15.32;;;3.08;;
73283;SDS011;61519;60.050;18.582;2023-02-08T04:24:59;16.53;;;2.73;;
73283;SDS011;61519;60.050;18.582;2023-02-08T04:27:24;9.77;;;2.40;;
73283;SDS011;61519;60.050;18.582;2023-02-08T04:29:50;11.93;;;2.30;;
73283;SDS011;61519;60.050;18.582;2023-02-08T04:32:15;17.70;;;3.17;;
73283;SDS011;61519;60.050;18.582;2023-02-08T04:34:40;21.00;;;3.00;;
73283;SDS011;61519;60.050;18.582;2023-02-08T04:37:06;18.90;;;2.53;;
73283;SDS011;61519;60.050;18.582;2023-02-08T04:39:32;17.13;;;2.70;;
73283;SDS011;61519;60.050;18.582;2023-02-08T04:41:57;11.83;;;2.30;;
73283;SDS011;61519;60.050;18.582;2023-02-08T04:44:22;15.23;;;3.33;;
73283;SDS011;61519;60.050;18.582;2023-02-08T04:46:48;13.88;;;2.42;;
73283;SDS011;61519;60.050;18.582;2023-02-08T04:49:14;11.00;;;2.33;;
73283;SDS011;61519;60.050;18.582;2023-02-08T04:51:39;12.27;;;2.17;;
73283;SDS011;61519;60.050;18.582;2023-02-08T04:54:05;11.60;;;2.45;;
73283;SDS011;61519;60.050;18.582;2023-02-08T04:56:30;15.07;;;2.83;;
73283;SDS011;61519;60.050;18.582;2023-02-08T04:58:56;10.57;;;2.50;;
73283;SDS011;61519;60.050;18.582;2023-02-08T05:01:21;9.77;;;2.43;;
73283;SDS011;61519;60.050;18.582;2023-02-08T05:03:46;15.43;;;2.33;;
73283;SDS011;61519;60.050;18.582;2023-02-08T05:06:12;14.15;;;2.67;;
73283;SDS011;61519;60.050;18.582;2023-02-08T05:08:38;17.63;;;2.67;;
73283;SDS011;61519;60.050;18.582;2023-02-08T05:11:03;15.23;;;2.40;;
73283;SDS011;61519;60.050;18.582;2023-02-08T05:13:28;10.20;;;2.27;;
73283;SDS011;61519;60.050;18.582;2023-02-08T05:15:54;16.67;;;2.17;;
73283;SDS011;61519;60.050;18.582;2023-02-08T05:18:19;13.80;;;2.30;;
73283;SDS011;61519;60.050;18.582;2023-02-08T05:20:45;10.60;;;2.57;;
73283;SDS011;61519;60.050;18.582;2023-02-08T05:23:18;18.20;;;2.40;;
73283;SDS011;61519;60.050;18.582;2023-02-08T05:25:44;14.57;;;2.47;;
73283;SDS011;61519;60.050;18.582;2023-02-08T05:28:09;10.30;;;2.30;;
73283;SDS011;61519;60.050;18.582;2023-02-08T05:30:36;11.03;;;2.40;;
73283;SDS011;61519;60.050;18.582;2023-02-08T05:33:02;12.77;;;2.33;;
73283;SDS011;61519;60.050;18.582;2023-02-08T05:35:27;12.03;;;2.70;;
73283;SDS011;61519;60.050;18.582;2023-02-08T05:37:52;15.13;;;2.50;;
73283;SDS011;61519;60.050;18.582;2023-02-08T05:40:18;12.70;;;2.50;;
73283;SDS011;61519;60.050;18.582;2023-02-08T05:42:43;13.48;;;2.60;;
73283;SDS011;61519;60.050;18.582;2023-02-08T05:45:09;11.40;;;2.97;;
73283;SDS011;61519;60.050;18.582;2023-02-08T05:47:35;15.87;;;2.70;;
73283;SDS011;61519;60.050;18.582;2023-02-08T05:50:00;16.75;;;2.63;;
73283;SDS011;61519;60.050;18.582;2023-02-08T05:52:25;11.43;;;2.20;;
73283;SDS011;61519;60.050;18.582;2023-02-08T05:54:51;9.83;;;2.17;;
73283;SDS011;61519;60.050;18.582;2023-02-08T05:57:16;12.50;;;2.67;;
73283;SDS011;61519;60.050;18.582;2023-02-08T05:59:41;6.37;;;2.10;;
73283;SDS011;61519;60.050;18.582;2023-02-08T06:02:07;12.73;;;2.20;;
73283;SDS011;61519;60.050;18.582;2023-02-08T06:04:32;12.13;;;2.30;;
73283;SDS011;61519;60.050;18.582;2023-02-08T06:06:57;10.40;;;2.17;;
73283;SDS011;61519;60.050;18.582;2023-02-08T06:09:23;13.47;;;2.60;;
73283;SDS011;61519;60.050;18.582;2023-02-08T06:11:48;14.60;;;2.20;;
73283;SDS011;61519;60.050;18.582;2023-02-08T06:14:13;9.03;;;1.90;;
73283;SDS011;61519;60.050;18.582;2023-02-08T06:16:39;7.40;;;2.00;;
73283;SDS011;61519;60.050;18.582;2023-02-08T06:19:04;16.80;;;2.97;;
73283;SDS011;61519;60.050;18.582;2023-02-08T06:21:30;7.80;;;2.13;;
73283;SDS011;61519;60.050;18.582;2023-02-08T06:23:55;13.87;;;2.63;;
73283;SDS011;61519;60.050;18.582;2023-02-08T06:26:20;13.80;;;2.00;;
73283;SDS011;61519;60.050;18.582;2023-02-08T06:28:46;8.33;;;2.10;;
73283;SDS011;61519;60.050;18.582;2023-02-08T06:31:11;11.20;;;2.20;;
73283;SDS011;61519;60.050;18.582;2023-02-08T06:33:36;9.87;;;2.37;;
73283;SDS011;61519;60.050;18.582;2023-02-08T06:36:02;11.68;;;2.28;;
73283;SDS011;61519;60.050;18.582;2023-02-08T06:38:27;14.57;;;2.53;;
73283;SDS011;61519;60.050;18.582;2023-02-08T06:40:53;12.50;;;2.97;;
73283;SDS011;61519;60.050;18.582;2023-02-08T06:43:18;11.30;;;2.67;;
73283;SDS011;61519;60.050;18.582;2023-02-08T06:45:44;10.70;;;2.92;;
73283;SDS011;61519;60.050;18.582;2023-02-08T06:48:10;6.20;;;1.93;;
73283;SDS011;61519;60.050;18.582;2023-02-08T06:50:36;13.23;;;4.40;;
73283;SDS011;61519;60.050;18.582;2023-02-08T06:53:02;14.48;;;4.43;;
73283;SDS011;61519;60.050;18.582;2023-02-08T06:55:27;5.73;;;2.07;;
73283;SDS011;61519;60.050;18.582;2023-02-08T06:57:53;10.57;;;2.90;;
73283;SDS011;61519;60.050;18.582;2023-02-08T07:00:19;17.73;;;3.53;;
73283;SDS011;61519;60.050;18.582;2023-02-08T07:02:44;10.67;;;3.00;;
73283;SDS011;61519;60.050;18.582;2023-02-08T07:05:11;8.18;;;3.53;;
73283;SDS011;61519;60.050;18.582;2023-02-08T07:07:37;10.97;;;2.67;;
73283;SDS011;61519;60.050;18.582;2023-02-08T07:10:02;8.13;;;2.37;;
73283;SDS011;61519;60.050;18.582;2023-02-08T07:12:27;8.23;;;2.75;;
73283;SDS011;61519;60.050;18.582;2023-02-08T07:14:53;18.27;;;2.70;;
73283;SDS011;61519;60.050;18.582;2023-02-08T07:17:18;9.97;;;2.40;;
73283;SDS011;61519;60.050;18.582;2023-02-08T07:19:43;10.83;;;2.50;;
73283;SDS011;61519;60.050;18.582;2023-02-08T07:22:09;8.20;;;2.23;;
73283;SDS011;61519;60.050;18.582;2023-02-08T07:24:35;8.63;;;2.30;;
73283;SDS011;61519;60.050;18.582;2023-02-08T07:27:04;9.90;;;2.80;;
73283;SDS011;61519;60.050;18.582;2023-02-08T07:29:31;11.52;;;2.58;;
73283;SDS011;61519;60.050;18.582;2023-02-08T07:31:57;12.43;;;2.20;;
73283;SDS011;61519;60.050;18.582;2023-02-08T07:34:23;6.45;;;1.73;;
73283;SDS011;61519;60.050;18.582;2023-02-08T07:36:49;8.65;;;2.75;;
73283;SDS011;61519;60.050;18.582;2023-02-08T07:39:14;11.40;;;2.13;;
73283;SDS011;61519;60.050;18.582;2023-02-08T07:41:40;22.53;;;7.77;;
73283;SDS011;61519;60.050;18.582;2023-02-08T07:44:05;6.73;;;3.27;;
73283;SDS011;61519;60.050;18.582;2023-02-08T07:46:31;13.38;;;3.60;;
73283;SDS011;61519;60.050;18.582;2023-02-08T07:48:56;8.65;;;2.75;;
73283;SDS011;61519;60.050;18.582;2023-02-08T07:51:22;11.80;;;2.27;;
73283;SDS011;61519;60.050;18.582;2023-02-08T07:53:47;10.27;;;2.33;;
73283;SDS011;61519;60.050;18.582;2023-02-08T07:56:12;10.83;;;2.43;;
73283;SDS011;61519;60.050;18.582;2023-02-08T07:58:38;8.50;;;2.57;;
73283;SDS011;61519;60.050;18.582;2023-02-08T08:01:03;11.97;;;2.57;;
73283;SDS011;61519;60.050;18.582;2023-02-08T08:03:29;7.20;;;2.40;;
73283;SDS011;61519;60.050;18.582;2023-02-08T08:05:54;5.22;;;1.75;;
73283;SDS011;61519;60.050;18.582;2023-02-08T08:08:19;10.27;;;1.87;;
73283;SDS011;61519;60.050;18.582;2023-02-08T08:10:45;7.80;;;2.20;;
73283;SDS011;61519;60.050;18.582;2023-02-08T08:13:10;14.80;;;2.73;;
73283;SDS011;61519;60.050;18.582;2023-02-08T08:15:37;9.57;;;2.53;;
73283;SDS011;61519;60.050;18.582;2023-02-08T08:18:03;7.87;;;2.00;;
73283;SDS011;61519;60.050;18.582;2023-02-08T08:20:28;6.28;;;1.90;;
73283;SDS011;61519;60.050;18.582;2023-02-08T08:22:54;8.70;;;2.10;;
73283;SDS011;61519;60.050;18.582;2023-02-08T08:25:19;8.27;;;2.30;;
73283;SDS011;61519;60.050;18.582;2023-02-08T08:27:44;10.63;;;2.10;;
73283;SDS011;61519;60.050;18.582;2023-02-08T08:30:11;10.00;;;2.00;;
73283;SDS011;61519;60.050;18.582;2023-02-08T08:32:37;5.65;;;2.13;;
73283;SDS011;61519;60.050;18.582;2023-02-08T08:35:03;6.43;;;1.97;;
73283;SDS011;61519;60.050;18.582;2023-02-08T08:37:29;8.27;;;2.15;;
73283;SDS011;61519;60.050;18.582;2023-02-08T08:39:55;7.30;;;2.10;;
73283;SDS011;61519;60.050;18.582;2023-02-08T08:42:20;17.80;;;6.13;;
73283;SDS011;61519;60.050;18.582;2023-02-08T08:44:45;9.10;;;2.90;;
73283;SDS011;61519;60.050;18.582;2023-02-08T08:47:11;9.13;;;3.72;;
73283;SDS011;61519;60.050;18.582;2023-02-08T08:49:37;12.33;;;7.33;;
73283;SDS011;61519;60.050;18.582;2023-02-08T08:52:02;11.48;;;5.78;;
73283;SDS011;61519;60.050;18.582;2023-02-08T08:54:30;11.80;;;5.75;;
73283;SDS011;61519;60.050;18.582;2023-02-08T08:56:55;13.15;;;5.63;;
73283;SDS011;61519;60.050;18.582;2023-02-08T08:59:21;5.93;;;1.90;;
73283;SDS011;61519;60.050;18.582;2023-02-08T09:01:46;7.40;;;2.30;;
73283;SDS011;61519;60.050;18.582;2023-02-08T09:04:11;4.80;;;1.97;;
73283;SDS011;61519;60.050;18.582;2023-02-08T09:06:37;6.07;;;1.90;;
73283;SDS011;61519;60.050;18.582;2023-02-08T09:09:05;14.73;;;6.25;;
73283;SDS011;61519;60.050;18.582;2023-02-08T09:11:31;9.82;;;3.13;;
73283;SDS011;61519;60.050;18.582;2023-02-08T09:13:58;3.90;;;1.90;;
73283;SDS011;61519;60.050;18.582;2023-02-08T09:16:23;7.23;;;1.80;;
73283;SDS011;61519;60.050;18.582;2023-02-08T09:18:49;6.45;;;2.00;;
73283;SDS011;61519;60.050;18.582;2023-02-08T09:21:16;7.73;;;2.20;;
73283;SDS011;61519;60.050;18.582;2023-02-08T09:23:43;6.53;;;1.73;;
73283;SDS011;61519;60.050;18.582;2023-02-08T09:26:12;5.15;;;2.03;;
73283;SDS011;61519;60.050;18.582;2023-02-08T09:28:39;7.10;;;2.10;;
73283;SDS011;61519;60.050;18.582;2023-02-08T09:31:08;8.32;;;2.10;;
73283;SDS011;61519;60.050;18.582;2023-02-08T09:33:36;8.47;;;1.60;;
73283;SDS011;61519;60.050;18.582;2023-02-08T09:36:02;5.40;;;1.90;;
73283;SDS011;61519;60.050;18.582;2023-02-08T09:38:28;6.35;;;2.13;;
73283;SDS011;61519;60.050;18.582;2023-02-08T09:46:37;13.40;;;3.78;;
73283;SDS011;61519;60.050;18.582;2023-02-08T09:49:08;8.20;;;2.00;;
73283;SDS011;61519;60.050;18.582;2023-02-08T09:51:36;6.53;;;1.98;;
73283;SDS011;61519;60.050;18.582;2023-02-08T09:54:08;6.75;;;2.38;;
73283;SDS011;61519;60.050;18.582;2023-02-08T09:56:54;10.57;;;2.55;;
73283;SDS011;61519;60.050;18.582;2023-02-08T09:59:25;7.43;;;2.00;;
73283;SDS011;61519;60.050;18.582;2023-02-08T10:01:56;5.25;;;2.33;;
73283;SDS011;61519;60.050;18.582;2023-02-08T10:04:27;8.38;;;2.00;;
73283;SDS011;61519;60.050;18.582;2023-02-08T10:06:59;7.13;;;2.80;;
73283;SDS011;61519;60.050;18.582;2023-02-08T10:09:24;7.60;;;2.27;;
73283;SDS011;61519;60.050;18.582;2023-02-08T10:22:54;8.40;;;2.95;;
73283;SDS011;61519;60.050;18.582;2023-02-08T10:33:15;8.05;;;2.40;;
73283;SDS011;61519;60.050;18.582;2023-02-08T10:35:45;11.25;;;2.88;;
73283;SDS011;61519;60.050;18.582;2023-02-08T10:38:21;10.10;;;2.53;;
73283;SDS011;61519;60.050;18.582;2023-02-08T10:40:52;9.20;;;2.58;;
73283;SDS011;61519;60.050;18.582;2023-02-08T10:48:43;11.43;;;2.90;;
73283;SDS011;61519;60.050;18.582;2023-02-08T10:51:19;8.40;;;2.65;;
73283;SDS011;61519;60.050;18.582;2023-02-08T10:53:45;8.75;;;2.72;;
73283;SDS011;61519;60.050;18.582;2023-02-08T10:56:16;7.07;;;2.47;;
73283;SDS011;61519;60.050;18.582;2023-02-08T10:58:58;7.30;;;2.97;;
73283;SDS011;61519;60.050;18.582;2023-02-08T11:01:25;8.75;;;2.72;;
73283;SDS011;61519;60.050;18.582;2023-02-08T11:04:01;9.45;;;2.30;;
73283;SDS011;61519;60.050;18.582;2023-02-08T11:06:29;7.03;;;2.40;;
73283;SDS011;61519;60.050;18.582;2023-02-08T11:08:55;6.85;;;2.15;;
73283;SDS011;61519;60.050;18.582;2023-02-08T11:11:21;11.03;;;2.67;;
73283;SDS011;61519;60.050;18.582;2023-02-08T11:13:51;11.48;;;2.92;;
73283;SDS011;61519;60.050;18.582;2023-02-08T11:16:20;9.18;;;3.25;;
73283;SDS011;61519;60.050;18.582;2023-02-08T11:18:48;10.48;;;3.03;;
73283;SDS011;61519;60.050;18.582;2023-02-08T11:21:29;9.63;;;2.30;;
73283;SDS011;61519;60.050;18.582;2023-02-08T11:23:59;8.75;;;2.40;;
73283;SDS011;61519;60.050;18.582;2023-02-08T11:28:58;7.67;;;2.50;;
73283;SDS011;61519;60.050;18.582;2023-02-08T11:31:24;8.77;;;2.35;;
73283;SDS011;61519;60.050;18.582;2023-02-08T11:34:00;9.73;;;2.57;;
73283;SDS011;61519;60.050;18.582;2023-02-08T11:36:27;12.98;;;2.40;;
73283;SDS011;61519;60.050;18.582;2023-02-08T11:38:54;6.93;;;2.75;;
73283;SDS011;61519;60.050;18.582;2023-02-08T11:41:19;10.98;;;2.10;;
73283;SDS011;61519;60.050;18.582;2023-02-08T11:43:56;7.47;;;1.93;;
73283;SDS011;61519;60.050;18.582;2023-02-08T11:46:24;5.63;;;2.10;;
73283;SDS011;61519;60.050;18.582;2023-02-08T11:51:37;6.93;;;2.28;;
73283;SDS011;61519;60.050;18.582;2023-02-08T11:54:03;5.75;;;2.20;;
73283;SDS011;61519;60.050;18.582;2023-02-08T11:56:33;9.60;;;2.50;;
73283;SDS011;61519;60.050;18.582;2023-02-08T12:01:27;6.83;;;2.20;;
73283;SDS011;61519;60.050;18.582;2023-02-08T12:03:58;7.22;;;2.15;;
73283;SDS011;61519;60.050;18.582;2023-02-08T12:15:10;5.17;;;1.73;;
73283;SDS011;61519;60.050;18.582;2023-02-08T12:17:23;7.28;;;2.00;;
73283;SDS011;61519;60.050;18.582;2023-02-08T12:20:01;5.85;;;1.80;;
73283;SDS011;61519;60.050;18.582;2023-02-08T12:22:36;7.53;;;1.80;;
73283;SDS011;61519;60.050;18.582;2023-02-08T12:25:12;5.35;;;1.83;;
73283;SDS011;61519;60.050;18.582;2023-02-08T12:30:32;8.70;;;1.98;;
73283;SDS011;61519;60.050;18.582;2023-02-08T12:33:06;6.30;;;2.17;;
73283;SDS011;61519;60.050;18.582;2023-02-08T12:55:55;9.93;;;2.00;;
73283;SDS011;61519;60.050;18.582;2023-02-08T12:58:29;5.72;;;1.83;;
73283;SDS011;61519;60.050;18.582;2023-02-08T13:01:01;6.88;;;1.50;;
73283;SDS011;61519;60.050;18.582;2023-02-08T13:03:46;8.07;;;1.70;;
73283;SDS011;61519;60.050;18.582;2023-02-08T13:06:21;7.25;;;1.98;;
73283;SDS011;61519;60.050;18.582;2023-02-08T13:12:07;5.13;;;1.60;;
73283;SDS011;61519;60.050;18.582;2023-02-08T13:14:49;4.80;;;1.52;;
73283;SDS011;61519;60.050;18.582;2023-02-08T13:17:26;7.68;;;1.63;;
73283;SDS011;61519;60.050;18.582;2023-02-08T13:19:57;5.50;;;1.67;;
73283;SDS011;61519;60.050;18.582;2023-02-08T13:22:25;7.23;;;2.00;;
73283;SDS011;61519;60.050;18.582;2023-02-08T13:24:51;9.35;;;1.80;;
73283;SDS011;61519;60.050;18.582;2023-02-08T13:27:18;7.25;;;1.88;;
73283;SDS011;61519;60.050;18.582;2023-02-08T13:29:45;7.63;;;1.87;;
73283;SDS011;61519;60.050;18.582;2023-02-08T13:35:39;11.02;;;1.83;;
73283;SDS011;61519;60.050;18.582;2023-02-08T13:40:34;8.23;;;2.28;;
73283;SDS011;61519;60.050;18.582;2023-02-08T13:43:05;6.07;;;1.70;;
73283;SDS011;61519;60.050;18.582;2023-02-08T13:45:41;7.32;;;1.75;;
73283;SDS011;61519;60.050;18.582;2023-02-08T13:48:09;8.90;;;1.60;;
73283;SDS011;61519;60.050;18.582;2023-02-08T13:50:37;10.95;;;2.10;;
73283;SDS011;61519;60.050;18.582;2023-02-08T13:53:16;6.88;;;1.85;;
73283;SDS011;61519;60.050;18.582;2023-02-08T14:01:00;6.10;;;1.60;;
73283;SDS011;61519;60.050;18.582;2023-02-08T14:03:26;3.53;;;1.40;;
73283;SDS011;61519;60.050;18.582;2023-02-08T14:05:56;6.03;;;1.90;;
73283;SDS011;61519;60.050;18.582;2023-02-08T14:13:35;5.80;;;1.77;;
73283;SDS011;61519;60.050;18.582;2023-02-08T14:16:30;6.65;;;1.70;;
73283;SDS011;61519;60.050;18.582;2023-02-08T14:21:45;6.50;;;1.90;;
73283;SDS011;61519;60.050;18.582;2023-02-08T14:24:27;4.82;;;1.58;;
73283;SDS011;61519;60.050;18.582;2023-02-08T14:27:04;5.18;;;1.25;;
73283;SDS011;61519;60.050;18.582;2023-02-08T14:29:32;4.35;;;1.60;;
73283;SDS011;61519;60.050;18.582;2023-02-08T14:31:58;7.20;;;1.60;;
73283;SDS011;61519;60.050;18.582;2023-02-08T14:34:28;6.25;;;1.70;;
73283;SDS011;61519;60.050;18.582;2023-02-08T14:36:57;5.80;;;1.40;;
73283;SDS011;61519;60.050;18.582;2023-02-08T14:39:45;4.63;;;1.60;;
73283;SDS011;61519;60.050;18.582;2023-02-08T14:42:14;6.47;;;1.55;;
73283;SDS011;61519;60.050;18.582;2023-02-08T14:45:37;6.05;;;1.50;;
73283;SDS011;61519;60.050;18.582;2023-02-08T14:50:49;7.50;;;1.60;;
73283;SDS011;61519;60.050;18.582;2023-02-08T14:58:39;6.03;;;1.73;;
73283;SDS011;61519;60.050;18.582;2023-02-08T15:01:20;4.77;;;1.60;;
73283;SDS011;61519;60.050;18.582;2023-02-08T15:03:55;5.03;;;1.52;;
73283;SDS011;61519;60.050;18.582;2023-02-08T15:09:23;4.43;;;1.50;;
73283;SDS011;61519;60.050;18.582;2023-02-08T15:11:58;5.80;;;1.50;;
73283;SDS011;61519;60.050;18.582;2023-02-08T15:14:25;4.40;;;1.63;;
73283;SDS011;61519;60.050;18.582;2023-02-08T15:16:51;4.38;;;1.40;;
73283;SDS011;61519;60.050;18.582;2023-02-08T15:19:37;5.70;;;1.70;;
73283;SDS011;61519;60.050;18.582;2023-02-08T15:22:16;6.18;;;1.60;;
73283;SDS011;61519;60.050;18.582;2023-02-08T15:24:49;6.68;;;1.83;;
73283;SDS011;61519;60.050;18.582;2023-02-08T15:27:22;7.57;;;1.67;;
73283;SDS011;61519;60.050;18.582;2023-02-08T15:29:49;6.03;;;1.40;;
73283;SDS011;61519;60.050;18.582;2023-02-08T15:32:16;5.10;;;1.70;;
73283;SDS011;61519;60.050;18.582;2023-02-08T15:34:43;4.95;;;1.42;;
73283;SDS011;61519;60.050;18.582;2023-02-08T15:37:14;4.70;;;1.58;;
73283;SDS011;61519;60.050;18.582;2023-02-08T15:39:40;7.43;;;1.60;;
73283;SDS011;61519;60.050;18.582;2023-02-08T15:42:19;5.63;;;1.53;;
73283;SDS011;61519;60.050;18.582;2023-02-08T15:44:46;4.00;;;1.30;;
73283;SDS011;61519;60.050;18.582;2023-02-08T15:47:15;4.22;;;1.40;;
73283;SDS011;61519;60.050;18.582;2023-02-08T15:49:43;5.40;;;1.45;;
73283;SDS011;61519;60.050;18.582;2023-02-08T15:52:19;4.03;;;1.40;;
73283;SDS011;61519;60.050;18.582;2023-02-08T15:54:47;5.07;;;1.40;;
73283;SDS011;61519;60.050;18.582;2023-02-08T16:00:03;5.53;;;1.42;;
73283;SDS011;61519;60.050;18.582;2023-02-08T16:02:30;5.30;;;1.80;;
73283;SDS011;61519;60.050;18.582;2023-02-08T16:04:58;3.78;;;1.48;;
73283;SDS011;61519;60.050;18.582;2023-02-08T16:07:30;4.00;;;1.60;;
73283;SDS011;61519;60.050;18.582;2023-02-08T16:10:01;3.60;;;1.70;;
73283;SDS011;61519;60.050;18.582;2023-02-08T16:12:26;5.90;;;1.90;;
73283;SDS011;61519;60.050;18.582;2023-02-08T16:14:52;8.27;;;2.03;;
73283;SDS011;61519;60.050;18.582;2023-02-08T16:17:31;5.17;;;1.60;;
73283;SDS011;61519;60.050;18.582;2023-02-08T16:20:00;5.15;;;1.52;;
73283;SDS011;61519;60.050;18.582;2023-02-08T16:22:32;8.13;;;1.93;;
73283;SDS011;61519;60.050;18.582;2023-02-08T16:28:01;8.00;;;2.40;;
73283;SDS011;61519;60.050;18.582;2023-02-08T16:30:27;6.78;;;1.15;;
73283;SDS011;61519;60.050;18.582;2023-02-08T16:32:53;8.77;;;2.20;;
73283;SDS011;61519;60.050;18.582;2023-02-08T16:35:20;8.03;;;1.83;;
73283;SDS011;61519;60.050;18.582;2023-02-08T16:37:57;4.30;;;1.85;;
73283;SDS011;61519;60.050;18.582;2023-02-08T16:43:17;7.53;;;2.08;;
73283;SDS011;61519;60.050;18.582;2023-02-08T16:48:42;5.82;;;1.88;;
73283;SDS011;61519;60.050;18.582;2023-02-08T16:51:23;4.28;;;1.92;;
73283;SDS011;61519;60.050;18.582;2023-02-08T16:53:51;8.35;;;1.73;;
73283;SDS011;61519;60.050;18.582;2023-02-08T16:56:19;5.80;;;1.73;;